Time;durP1;ratioP1;P1;durP2;ratioP2;P2;SDS_P1;SDS_P2;PMS_P1;PMS_P2;Temp;Humidity;BMP_temperature;BMP_pressure;BME280_temperature;BME280_humidity;BME280_pressure;Samples;Min_cycle;Max_cycle;Signal;HPM_P1;HPM_P2
2021/10/09 00:02:26;;;;;;;13.43;12.03;;;;;;;3.59;100.00;99106.88;4948098;28;20312;-67
2021/10/09 00:04:54;;;;;;;14.60;11.63;;;;;;;3.56;100.00;99099.19;4976784;28;20236;-67
2021/10/09 00:07:22;;;;;;;12.50;11.30;;;;;;;3.50;100.00;99099.56;4973986;28;20324;-68
2021/10/09 00:09:53;;;;;;;16.13;12.87;;;;;;;3.50;100.00;99104.81;4967237;28;20578;-69
2021/10/09 00:12:21;;;;;;;11.87;10.57;;;;;;;3.50;100.00;99103.97;4971545;28;20209;-69
2021/10/09 00:14:49;;;;;;;12.07;10.87;;;;;;;3.45;100.00;99107.69;4962002;28;20231;-68
2021/10/09 00:17:20;;;;;;;12.07;10.83;;;;;;;3.50;100.00;99114.44;4937218;28;20214;-68
2021/10/09 00:19:48;;;;;;;12.63;11.30;;;;;;;3.39;100.00;99109.81;4974234;28;20241;-69
2021/10/09 00:22:16;;;;;;;11.70;10.60;;;;;;;3.33;100.00;99111.06;4971314;28;20694;-67
2021/10/09 00:24:44;;;;;;;11.03;10.03;;;;;;;3.32;100.00;99112.00;4965119;28;20268;-69
2021/10/09 00:27:12;;;;;;;12.10;10.07;;;;;;;3.29;100.00;99117.41;4970101;28;20206;-67
2021/10/09 00:29:40;;;;;;;11.87;10.67;;;;;;;3.25;100.00;99113.28;4964796;28;20661;-68
2021/10/09 00:32:08;;;;;;;12.13;10.83;;;;;;;3.22;100.00;99109.06;4941926;28;20225;-68
2021/10/09 00:34:38;;;;;;;13.60;9.80;;;;;;;3.21;100.00;99110.00;4970324;28;20487;-69
2021/10/09 00:37:06;;;;;;;11.83;10.67;;;;;;;3.20;100.00;99110.94;4971783;28;20215;-67
2021/10/09 00:39:33;;;;;;;11.73;10.67;;;;;;;3.16;100.00;99097.16;4965591;28;20967;-68
2021/10/09 00:42:01;;;;;;;10.77;9.77;;;;;;;3.14;100.00;99104.25;4973250;28;20202;-67
2021/10/09 00:44:29;;;;;;;11.90;10.70;;;;;;;3.17;100.00;99106.69;4979132;28;20918;-67
2021/10/09 00:47:01;;;;;;;12.43;10.50;;;;;;;3.30;100.00;99087.66;4937986;28;20228;-68
2021/10/09 00:49:29;;;;;;;11.30;10.10;;;;;;;3.31;100.00;99090.16;4972088;28;20249;-68
2021/10/09 00:52:00;;;;;;;10.87;9.77;;;;;;;3.34;100.00;99097.03;4975566;28;20642;-69
2021/10/09 00:54:29;;;;;;;11.23;10.10;;;;;;;3.23;100.00;99091.56;4963217;28;20521;-67
2021/10/09 00:56:58;;;;;;;12.70;11.00;;;;;;;3.15;100.00;99086.78;4978787;28;21170;-69
2021/10/09 00:59:27;;;;;;;12.13;10.93;;;;;;;3.10;100.00;99091.44;4975489;28;20205;-69
2021/10/09 01:01:55;;;;;;;12.13;11.03;;;;;;;3.05;100.00;99089.09;4968286;28;20205;-68
2021/10/09 01:04:23;;;;;;;13.83;12.43;;;;;;;3.03;100.00;99090.94;4939117;28;20315;-69
2021/10/09 01:06:51;;;;;;;12.47;11.27;;;;;;;3.02;100.00;99094.50;4976984;28;20223;-68
2021/10/09 01:09:22;;;;;;;11.10;10.00;;;;;;;3.06;100.00;99097.81;4972685;28;20217;-68
2021/10/09 01:11:50;;;;;;;11.33;10.07;;;;;;;3.04;100.00;99090.03;4965011;28;20224;-67
2021/10/09 01:14:18;;;;;;;11.47;10.40;;;;;;;2.99;100.00;99089.44;4982200;28;20583;-69
2021/10/09 01:16:46;;;;;;;9.87;8.87;;;;;;;2.97;100.00;99086.06;4970240;28;20388;-68
2021/10/09 01:19:14;;;;;;;12.37;11.03;;;;;;;2.94;100.00;99089.69;4940839;28;20297;-69
2021/10/09 01:21:45;;;;;;;11.37;10.27;;;;;;;2.92;100.00;99081.09;4937441;28;20698;-68
2021/10/09 01:24:14;;;;;;;11.97;10.87;;;;;;;2.92;100.00;99085.50;4962196;28;20570;-69
2021/10/09 01:26:42;;;;;;;10.47;9.47;;;;;;;2.88;100.00;99076.97;4956440;28;20221;-67
2021/10/09 01:29:12;;;;;;;11.90;10.33;;;;;;;2.98;100.00;99074.66;4966842;28;20228;-68
2021/10/09 01:31:40;;;;;;;12.43;10.43;;;;;;;2.99;100.00;99081.59;4967553;28;20689;-67
2021/10/09 01:34:08;;;;;;;11.50;10.13;;;;;;;2.97;100.00;99080.84;4974959;28;20363;-69
2021/10/09 01:36:39;;;;;;;12.80;10.77;;;;;;;2.99;100.00;99079.78;4964430;28;20213;-68
2021/10/09 01:39:11;;;;;;;11.93;10.83;;;;;;;2.94;100.00;99084.47;4956537;28;20514;-68
2021/10/09 01:41:39;;;;;;;11.97;9.43;;;;;;;2.93;100.00;99087.19;4981083;28;20248;-67
2021/10/09 01:44:08;;;;;;;11.70;10.60;;;;;;;2.95;100.00;99080.91;4966790;28;20636;-68
2021/10/09 01:46:36;;;;;;;12.27;10.43;;;;;;;2.95;100.00;99077.47;4979917;28;20210;-68
2021/10/09 01:49:04;;;;;;;12.63;11.43;;;;;;;2.86;100.00;99079.69;4966812;28;20426;-69
2021/10/09 01:51:32;;;;;;;18.90;16.70;;;;;;;2.86;100.00;99077.06;4981237;28;20201;-68
2021/10/09 01:54:01;;;;;;;15.37;12.77;;;;;;;2.82;100.00;99079.94;4944546;28;20945;-68
2021/10/09 01:56:30;;;;;;;13.17;11.83;;;;;;;2.78;100.00;99076.66;4978032;28;20216;-67
2021/10/09 01:58:58;;;;;;;13.40;12.07;;;;;;;2.74;100.00;99080.38;4964103;28;20236;-69
2021/10/09 02:01:26;;;;;;;13.40;12.03;;;;;;;2.76;100.00;99081.13;4978973;28;20233;-69
2021/10/09 02:03:54;;;;;;;36.33;30.27;;;;;;;2.71;100.00;99078.78;4963838;28;20501;-69
2021/10/09 02:06:22;;;;;;;32.80;28.00;;;;;;;2.68;100.00;99081.59;4978538;28;20209;-69
2021/10/09 02:08:53;;;;;;;16.20;14.50;;;;;;;2.72;100.00;99075.25;4939324;28;20500;-67
2021/10/09 02:11:23;;;;;;;18.40;16.50;;;;;;;2.60;100.00;99068.06;4977527;28;20228;-69
2021/10/09 02:13:58;;;;;;;16.80;15.20;;;;;;;2.65;100.00;99070.44;4965843;28;20224;-67
2021/10/09 02:24:56;;;;;;;28.33;21.87;;;;;;;2.58;100.00;99075.16;4926784;28;20876;-67
2021/10/09 02:27:24;;;;;;;19.37;17.17;;;;;;;2.55;100.00;99078.81;4977257;28;20216;-69
2021/10/09 02:29:53;;;;;;;13.77;12.37;;;;;;;2.58;100.00;99073.41;4962690;28;20212;-67
2021/10/09 02:32:21;;;;;;;14.53;13.07;;;;;;;2.55;100.00;99073.56;4978341;28;20209;-68
2021/10/09 02:34:49;;;;;;;14.00;10.93;;;;;;;2.54;100.00;99073.66;4963055;28;20229;-67
2021/10/09 02:37:17;;;;;;;12.13;10.83;;;;;;;2.58;100.00;99078.63;4972976;28;20212;-68
2021/10/09 02:39:45;;;;;;;12.00;10.60;;;;;;;2.55;100.00;99072.72;4938100;28;20221;-67
2021/10/09 02:42:13;;;;;;;13.93;9.80;;;;;;;2.54;100.00;99073.66;4973027;28;20229;-68
2021/10/09 02:44:40;;;;;;;13.03;11.00;;;;;;;2.48;100.00;99072.25;4959785;28;20316;-67
2021/10/09 02:47:10;;;;;;;15.53;14.00;;;;;;;2.47;100.00;99065.31;4978701;28;20725;-68
2021/10/09 02:49:38;;;;;;;13.63;12.33;;;;;;;2.43;100.00;99064.63;4964540;28;20229;-67
2021/10/09 02:52:06;;;;;;;16.10;14.50;;;;;;;2.44;100.00;99065.47;4974094;28;20205;-68
2021/10/09 02:54:34;;;;;;;13.17;11.67;;;;;;;2.37;100.00;99066.75;4940985;28;20850;-67
2021/10/09 02:57:02;;;;;;;12.37;11.10;;;;;;;2.33;100.00;99073.06;4971699;28;20209;-69
2021/10/09 02:59:30;;;;;;;12.90;11.57;;;;;;;2.33;100.00;99070.47;4978834;28;20212;-69
2021/10/09 03:01:58;;;;;;;14.40;12.27;;;;;;;2.33;100.00;99073.94;4964735;28;20392;-69
2021/10/09 03:04:27;;;;;;;11.27;10.17;;;;;;;2.35;100.00;99071.22;4966587;28;20229;-68
2021/10/09 03:06:55;;;;;;;13.40;12.00;;;;;;;2.31;100.00;99078.41;4966804;28;20210;-68
2021/10/09 03:09:23;;;;;;;15.83;14.27;;;;;;;2.35;100.00;99076.44;4943367;28;20217;-68
2021/10/09 03:11:51;;;;;;;16.67;15.07;;;;;;;2.29;100.00;99069.81;4964327;28;20206;-68
2021/10/09 03:14:19;;;;;;;14.33;12.83;;;;;;;2.25;100.00;99073.50;4977273;28;20229;-69
2021/10/09 03:16:47;;;;;;;14.40;12.97;;;;;;;2.23;100.00;99078.81;4964945;28;20233;-67
2021/10/09 03:19:16;;;;;;;19.23;17.27;;;;;;;2.20;100.00;99075.53;4973525;28;20210;-69
2021/10/09 03:21:45;;;;;;;17.03;15.27;;;;;;;2.17;100.00;99072.16;4965522;28;20476;-67
2021/10/09 03:24:13;;;;;;;29.47;26.40;;;;;;;2.18;100.00;99075.63;4967896;28;20230;-67
2021/10/09 03:26:42;;;;;;;13.63;12.23;;;;;;;2.23;100.00;99070.97;4948335;28;20210;-69
2021/10/09 03:29:09;;;;;;;11.50;10.40;;;;;;;2.15;100.00;99075.78;4935031;28;20244;-67
2021/10/09 03:31:37;;;;;;;15.77;12.63;;;;;;;2.12;100.00;99076.78;4973339;28;20647;-67
2021/10/09 03:34:05;;;;;;;24.67;21.83;;;;;;;2.09;100.00;99071.72;4973423;28;20240;-66
2021/10/09 03:36:33;;;;;;;19.07;17.07;;;;;;;2.08;100.00;99080.50;4958146;28;20590;-68
2021/10/09 03:39:07;;;;;;;29.97;22.70;;;;;;;2.05;100.00;99071.97;4975099;28;20735;-70
2021/10/09 03:41:37;;;;;;;32.13;28.17;;;;;;;2.02;100.00;99065.97;4970908;28;20345;-68
2021/10/09 03:44:05;;;;;;;27.60;24.60;;;;;;;2.00;100.00;99070.44;4920904;28;20226;-70
2021/10/09 03:46:41;;;;;;;29.97;25.33;;;;;;;1.97;100.00;99068.00;4967198;28;20206;-68
2021/10/09 03:49:19;;;;;;;18.63;14.80;;;;;;;1.97;100.00;99069.78;4974305;28;20209;-69
2021/10/09 03:54:34;;;;;;;15.60;14.00;;;;;;;1.89;100.00;99070.19;4973633;28;20392;-68
2021/10/09 03:57:02;;;;;;;16.37;14.23;;;;;;;1.91;100.00;99073.56;4974673;28;21076;-70
2021/10/09 03:59:31;;;;;;;14.43;12.17;;;;;;;1.88;100.00;99071.13;4950060;28;20210;-68
2021/10/09 04:01:59;;;;;;;15.50;13.83;;;;;;;1.90;100.00;99077.09;4961261;28;20635;-69
2021/10/09 04:04:29;;;;;;;22.77;17.97;;;;;;;1.87;100.00;99079.88;4974876;28;20884;-68
2021/10/09 04:06:57;;;;;;;24.73;19.53;;;;;;;1.87;100.00;99082.50;4973521;28;20235;-69
2021/10/09 04:09:24;;;;;;;21.07;18.10;;;;;;;1.81;100.00;99081.03;4972288;28;20217;-68
2021/10/09 04:11:54;;;;;;;17.27;15.07;;;;;;;1.76;100.00;99079.63;4971176;28;20275;-68
2021/10/09 04:14:22;;;;;;;14.93;13.37;;;;;;;1.72;100.00;99081.53;4959181;28;20238;-69
2021/10/09 04:16:50;;;;;;;20.77;17.63;;;;;;;1.66;100.00;99074.84;4946096;28;20498;-69
2021/10/09 04:19:18;;;;;;;16.87;14.40;;;;;;;1.62;100.00;99077.72;4971691;28;20205;-69
2021/10/09 04:21:46;;;;;;;16.23;12.53;;;;;;;1.62;100.00;99078.56;4976811;28;20232;-70
2021/10/09 04:24:17;;;;;;;15.57;12.70;;;;;;;1.65;100.00;99070.56;4971731;28;20244;-71
2021/10/09 04:26:50;;;;;;;13.43;11.80;;;;;;;1.63;100.00;99071.59;4973973;28;20257;-69
2021/10/09 04:29:19;;;;;;;32.40;23.30;;;;;;;1.58;100.00;99069.19;4976727;28;20682;-70
2021/10/09 04:31:47;;;;;;;37.20;27.57;;;;;;;1.55;100.00;99078.06;4943823;28;20389;-70
2021/10/09 04:34:15;;;;;;;22.37;18.07;;;;;;;1.53;100.00;99071.22;4968796;28;20230;-70
2021/10/09 04:36:43;;;;;;;18.43;16.63;;;;;;;1.49;100.00;99074.91;4978159;28;20217;-70
2021/10/09 04:39:11;;;;;;;18.63;15.50;;;;;;;1.47;100.00;99071.53;4978504;28;20404;-70
2021/10/09 04:41:39;;;;;;;13.70;12.27;;;;;;;1.40;100.00;99065.78;4974192;28;20633;-70
2021/10/09 04:44:07;;;;;;;11.50;10.30;;;;;;;1.41;100.00;99070.06;4971209;28;20221;-71
2021/10/09 04:46:37;;;;;;;11.13;10.03;;;;;;;1.40;100.00;99065.78;4942486;28;20217;-69
2021/10/09 04:49:05;;;;;;;11.80;10.63;;;;;;;1.35;100.00;99066.03;4969944;28;20206;-69
2021/10/09 04:51:33;;;;;;;12.20;10.83;;;;;;;1.34;100.00;99066.09;4963820;28;20214;-68
2021/10/09 04:54:01;;;;;;;10.83;9.77;;;;;;;1.30;100.00;99065.41;4963489;28;20248;-69
2021/10/09 04:56:29;;;;;;;11.17;10.07;;;;;;;1.27;100.00;99058.56;4973399;28;20450;-68
2021/10/09 04:58:57;;;;;;;9.83;8.87;;;;;;;1.28;100.00;99056.78;4964874;28;20216;-69
2021/10/09 05:01:25;;;;;;;11.90;9.27;;;;;;;1.24;100.00;99057.88;4971217;28;20457;-69
2021/10/09 05:03:54;;;;;;;11.43;10.33;;;;;;;1.26;100.00;99069.09;4939962;28;20279;-70
2021/10/09 05:06:22;;;;;;;12.10;10.90;;;;;;;1.27;100.00;99069.03;4961030;28;20221;-69
2021/10/09 05:08:50;;;;;;;12.93;11.00;;;;;;;1.23;100.00;99075.34;4974406;28;20209;-70
2021/10/09 05:11:19;;;;;;;11.73;10.60;;;;;;;1.16;100.00;99073.97;4969975;28;20313;-69
2021/10/09 05:13:47;;;;;;;12.27;10.50;;;;;;;1.18;100.00;99077.34;4975337;28;20225;-68
2021/10/09 05:16:15;;;;;;;12.90;10.73;;;;;;;1.13;100.00;99077.56;4959819;28;20209;-69
2021/10/09 05:18:47;;;;;;;11.43;10.10;;;;;;;1.15;100.00;99077.50;4943175;28;20243;-69
2021/10/09 05:21:16;;;;;;;13.23;11.53;;;;;;;1.17;100.00;99073.03;4972250;28;20671;-67
2021/10/09 05:23:44;;;;;;;14.67;12.70;;;;;;;1.24;100.00;99081.38;4972777;28;20649;-67
2021/10/09 05:26:12;;;;;;;15.77;13.13;;;;;;;1.35;100.00;99075.63;4975937;28;20221;-67
2021/10/09 05:28:43;;;;;;;14.97;13.43;;;;;;;1.44;100.00;99078.59;4971342;28;20362;-67
2021/10/09 05:31:18;;;;;;;15.70;13.57;;;;;;;1.54;100.00;99081.59;4955164;28;20792;-67
2021/10/09 05:33:49;;;;;;;15.90;13.17;;;;;;;1.61;100.00;99084.72;4941937;28;20589;-68
2021/10/09 05:36:18;;;;;;;17.03;13.60;;;;;;;1.70;100.00;99080.78;4937891;28;20214;-68
2021/10/09 05:38:46;;;;;;;18.50;13.97;;;;;;;1.83;100.00;99086.22;4964085;28;20210;-68
2021/10/09 05:41:14;;;;;;;19.00;14.37;;;;;;;2.02;100.00;99091.28;4971645;28;20302;-67
2021/10/09 05:43:43;;;;;;;19.23;15.53;;;;;;;2.07;100.00;99099.72;4959503;28;20229;-70
2021/10/09 05:46:11;;;;;;;20.77;15.17;;;;;;;2.12;100.00;99097.72;4974768;28;20210;-70
2021/10/09 05:48:40;;;;;;;17.43;14.27;;;;;;;2.33;100.00;99105.31;4969030;28;20202;-68
2021/10/09 05:51:13;;;;;;;21.70;16.23;;;;;;;2.37;100.00;99109.47;4954994;28;20604;-69
2021/10/09 05:54:01;;;;;;;19.70;16.33;;;;;;;2.41;100.00;99108.34;4949333;28;20226;-70
2021/10/09 05:56:35;;;;;;;22.33;16.00;;;;;;;2.55;100.00;99102.38;4958342;28;20201;-69
2021/10/09 05:59:32;;;;;;;21.83;16.53;;;;;;;3.01;100.00;99113.78;4971102;28;20213;-70
2021/10/09 06:02:19;;;;;;;23.13;16.97;;;;;;;2.98;100.00;99113.94;4971186;28;20213;-70
2021/10/09 06:49:34;;;;;;;25.33;20.17;;;;;;;4.56;100.00;99145.63;4971177;28;20213;-69
2021/10/09 07:00:20;;;;;;;24.90;19.80;;;;;;;5.11;100.00;99158.75;4970649;28;20205;-69
2021/10/09 07:02:48;;;;;;;25.23;19.00;;;;;;;5.36;100.00;99152.72;4963922;28;20414;-70
2021/10/09 07:05:17;;;;;;;22.47;18.40;;;;;;;5.51;100.00;99148.22;4970575;28;20588;-70
2021/10/09 07:07:47;;;;;;;23.83;18.43;;;;;;;5.66;100.00;99141.09;4937289;28;20240;-69
2021/10/09 07:10:15;;;;;;;21.70;17.63;;;;;;;5.67;100.00;99139.28;4940713;28;20218;-69
2021/10/09 07:12:43;;;;;;;27.50;18.30;;;;;;;6.00;100.00;99149.28;4946633;28;20715;-69
2021/10/09 07:15:14;;;;;;;24.20;18.57;;;;;;;6.04;100.00;99139.41;4960631;28;20209;-70
2021/10/09 07:17:45;;;;;;;21.73;17.07;;;;;;;6.10;100.00;99148.69;4960254;28;20232;-71
2021/10/09 07:20:13;;;;;;;22.57;17.10;;;;;;;5.95;100.00;99148.78;4963200;28;20205;-69
2021/10/09 07:22:45;;;;;;;21.23;15.83;;;;;;;6.11;100.00;99151.22;4970192;28;20214;-70
2021/10/09 07:25:19;;;;;;;20.30;15.47;;;;;;;6.15;100.00;99155.31;4951265;28;20358;-70
2021/10/09 07:27:48;;;;;;;18.33;15.53;;;;;;;6.10;100.00;99159.22;4950971;28;21589;-70
2021/10/09 07:30:16;;;;;;;18.73;14.93;;;;;;;6.17;100.00;99158.69;4973645;28;20210;-70
2021/10/09 07:32:46;;;;;;;20.37;16.27;;;;;;;6.26;100.00;99153.72;4970904;28;20327;-71
2021/10/09 07:35:14;;;;;;;19.27;15.20;;;;;;;6.45;100.00;99155.91;4962939;28;20321;-70
2021/10/09 07:37:43;;;;;;;17.30;15.23;;;;;;;6.46;100.00;99157.56;4968334;28;20438;-70
2021/10/09 07:40:12;;;;;;;19.73;17.20;;;;;;;6.64;100.00;99151.00;4974361;28;20217;-69
2021/10/09 07:42:40;;;;;;;20.47;15.33;;;;;;;6.67;100.00;99149.94;4915790;28;20214;-70
2021/10/09 07:45:09;;;;;;;18.67;15.00;;;;;;;6.80;100.00;99161.25;4954437;28;20625;-71
2021/10/09 07:47:41;;;;;;;17.00;14.53;;;;;;;6.91;100.00;99162.28;4962025;28;20293;-70
2021/10/09 07:50:11;;;;;;;20.13;15.57;;;;;;;7.01;100.00;99160.66;4954410;28;20217;-71
2021/10/09 07:52:41;;;;;;;17.43;15.03;;;;;;;7.15;100.00;99162.28;4953584;28;20232;-70
2021/10/09 07:55:09;;;;;;;20.83;14.90;;;;;;;7.40;100.00;99160.47;4967932;28;20513;-72
2021/10/09 07:57:37;;;;;;;19.77;16.10;;;;;;;7.49;100.00;99158.91;4954329;28;20213;-69
2021/10/09 08:00:07;;;;;;;20.10;14.03;;;;;;;7.57;100.00;99159.16;4935001;28;20220;-71
2021/10/09 08:02:36;;;;;;;15.03;13.47;;;;;;;7.62;100.00;99166.75;4967838;28;20213;-68
2021/10/09 08:05:05;;;;;;;15.87;13.03;;;;;;;7.73;100.00;99158.03;4969466;28;20234;-71
2021/10/09 08:07:35;;;;;;;17.80;13.03;;;;;;;7.87;100.00;99149.88;4951073;28;20468;-70
2021/10/09 08:10:03;;;;;;;15.17;13.63;;;;;;;8.07;100.00;99153.59;4970352;28;20210;-70
2021/10/09 08:12:31;;;;;;;15.13;13.00;;;;;;;8.19;100.00;99157.09;4968383;28;20513;-70
2021/10/09 08:14:59;;;;;;;16.53;12.03;;;;;;;8.21;100.00;99152.53;4939369;28;20237;-70
2021/10/09 08:17:27;;;;;;;18.93;12.43;;;;;;;8.44;100.00;99147.25;4957104;28;20213;-70
2021/10/09 08:19:55;;;;;;;14.77;11.40;;;;;;;8.47;100.00;99147.00;4973498;28;20230;-72
2021/10/09 08:22:28;;;;;;;14.70;12.53;;;;;;;8.71;100.00;99150.47;4957073;28;20462;-70
2021/10/09 08:25:09;;;;;;;17.03;11.30;;;;;;;8.66;100.00;99156.13;4950541;28;20241;-69
2021/10/09 08:27:50;;;;;;;17.27;12.43;;;;;;;8.92;100.00;99159.31;4968869;28;20446;-72
2021/10/09 08:36:13;;;;;;;13.47;10.30;;;;;;;9.19;100.00;99163.28;4976938;28;20594;-70
2021/10/09 08:38:49;;;;;;;14.43;11.07;;;;;;;9.45;100.00;99157.66;4962869;28;20351;-71
2021/10/09 08:41:19;;;;;;;12.90;10.97;;;;;;;9.47;100.00;99157.50;4972932;28;20675;-70
2021/10/09 08:43:50;;;;;;;14.20;12.03;;;;;;;9.39;100.00;99155.53;4971716;28;20745;-70
2021/10/09 08:46:19;;;;;;;15.00;11.00;;;;;;;9.51;100.00;99154.50;4937702;28;20968;-71
2021/10/09 08:48:53;;;;;;;12.87;10.60;;;;;;;9.61;100.00;99157.22;4963944;28;20205;-69
2021/10/09 08:51:22;;;;;;;12.47;11.17;;;;;;;9.71;100.00;99154.63;4954574;28;20707;-70
2021/10/09 08:53:50;;;;;;;15.00;11.50;;;;;;;9.68;100.00;99158.38;4951827;28;20249;-70
2021/10/09 08:56:31;;;;;;;14.53;10.40;;;;;;;9.77;100.00;99164.69;4953973;28;20214;-69
2021/10/09 08:59:11;;;;;;;11.33;10.17;;;;;;;9.92;100.00;99159.06;4954529;28;20431;-71
2021/10/09 09:01:48;;;;;;;12.20;11.00;;;;;;;9.91;100.00;99162.69;4924371;28;20210;-71
2021/10/09 09:04:36;;;;;;;14.70;10.40;;;;;;;10.11;100.00;99153.88;4964165;28;20237;-72
2021/10/09 09:35:25;;;;;;;12.97;10.23;;;;;;;11.21;100.00;99146.06;4970392;28;20213;-69
2021/10/09 09:40:43;;;;;;;10.10;8.87;;;;;;;11.55;100.00;99142.97;4963661;28;20641;-71
2021/10/09 09:43:12;;;;;;;10.70;9.57;;;;;;;11.53;100.00;99136.94;4963805;28;20233;-71
2021/10/09 09:45:42;;;;;;;10.20;9.20;;;;;;;11.52;100.00;99143.22;4969335;28;20252;-71
2021/10/09 09:48:10;;;;;;;11.27;8.87;;;;;;;11.66;100.00;99143.78;4934088;28;20602;-72
2021/10/09 09:50:40;;;;;;;9.80;8.63;;;;;;;11.70;100.00;99150.47;4912305;28;20518;-72
2021/10/09 09:53:08;;;;;;;10.50;9.17;;;;;;;11.91;100.00;99141.47;4971898;28;20232;-70
2021/10/09 09:55:36;;;;;;;10.80;8.77;;;;;;;11.94;100.00;99147.34;4970782;28;20312;-71
2021/10/09 09:58:24;;;;;;;10.17;9.13;;;;;;;12.09;100.00;99142.44;4968646;28;20562;-72
2021/10/09 10:00:57;;;;;;;10.93;8.90;;;;;;;12.10;100.00;99145.91;4973912;28;20224;-71
2021/10/09 10:03:26;;;;;;;10.60;8.67;;;;;;;12.28;100.00;99146.81;4974277;28;20226;-70
2021/10/09 10:05:54;;;;;;;9.40;8.53;;;;;;;12.19;100.00;99142.41;4939961;28;20233;-71
2021/10/09 10:08:23;;;;;;;10.43;9.43;;;;;;;12.24;100.00;99142.78;4973319;28;20209;-71
2021/10/09 10:10:51;;;;;;;11.90;9.63;;;;;;;12.35;100.00;99140.91;4974913;28;20205;-71
2021/10/09 10:13:20;;;;;;;12.03;8.87;;;;;;;12.30;100.00;99136.88;4977818;28;20233;-71
2021/10/09 10:15:49;;;;;;;9.70;8.37;;;;;;;12.26;100.00;99138.16;4974554;28;20323;-71
2021/10/09 10:18:48;;;;;;;12.93;10.00;;;;;;;12.36;100.00;99140.78;4972333;28;20792;-71
2021/10/09 10:21:18;;;;;;;9.47;8.27;;;;;;;12.48;100.00;99133.44;4967733;28;20224;-72
2021/10/09 10:23:47;;;;;;;11.37;9.47;;;;;;;12.45;100.00;99131.91;4955627;28;20436;-71
2021/10/09 10:26:30;;;;;;;11.20;10.07;;;;;;;12.41;100.00;99125.22;4977313;28;20225;-71
2021/10/09 10:29:21;;;;;;;11.97;7.97;;;;;;;12.62;100.00;99133.94;4977151;28;20574;-70
2021/10/09 10:32:14;;;;;;;10.50;9.40;;;;;;;12.69;99.41;99138.50;4974592;28;20374;-71
2021/10/09 10:34:46;;;;;;;12.10;9.13;;;;;;;12.70;100.00;99136.66;4972336;28;20274;-71
2021/10/09 10:37:34;;;;;;;9.87;8.40;;;;;;;12.77;100.00;99135.09;4944555;28;20213;-70
2021/10/09 10:40:02;;;;;;;12.40;8.60;;;;;;;12.89;97.71;99135.72;4971103;28;20213;-71
2021/10/09 10:42:31;;;;;;;11.70;7.93;;;;;;;12.76;96.89;99141.38;4969624;28;20205;-71
2021/10/09 10:45:11;;;;;;;10.30;9.03;;;;;;;13.03;95.54;99132.50;4973434;28;20234;-71
2021/10/09 10:47:46;;;;;;;11.30;8.83;;;;;;;13.03;97.78;99134.34;4968656;28;20411;-70
2021/10/09 10:54:20;;;;;;;9.00;7.93;;;;;;;13.22;96.13;99133.34;4939146;28;20669;-71
2021/10/09 10:57:19;;;;;;;11.17;8.90;;;;;;;13.44;95.00;99141.88;4973032;28;20388;-70
2021/10/09 10:59:59;;;;;;;9.23;8.33;;;;;;;13.34;94.25;99127.78;4973739;28;20967;-70
2021/10/09 11:02:29;;;;;;;11.57;8.17;;;;;;;13.40;87.72;99130.69;4971985;28;20221;-71
2021/10/09 11:04:59;;;;;;;14.17;8.23;;;;;;;13.50;91.29;99130.63;4975219;28;20229;-69
2021/10/09 11:07:30;;;;;;;11.50;8.60;;;;;;;13.56;91.41;99126.50;4947052;28;20212;-72
2021/10/09 11:10:04;;;;;;;12.77;8.70;;;;;;;13.62;89.43;99131.19;4972978;28;20229;-70
2021/10/09 11:12:33;;;;;;;17.03;8.87;;;;;;;13.69;90.38;99126.94;4965613;28;20206;-68
2021/10/09 11:15:17;;;;;;;9.73;8.20;;;;;;;13.87;88.29;99118.88;4975592;28;20566;-72
2021/10/09 11:17:47;;;;;;;10.97;8.87;;;;;;;13.92;88.71;99114.91;4972434;28;20205;-71
2021/10/09 11:20:21;;;;;;;13.60;8.63;;;;;;;14.08;89.92;99109.66;4972315;28;20225;-72
2021/10/09 11:22:52;;;;;;;12.03;9.03;;;;;;;14.34;89.86;99106.09;4970133;28;20845;-69
2021/10/09 11:25:23;;;;;;;11.80;9.27;;;;;;;14.43;85.89;99105.13;4937618;28;20234;-72
2021/10/09 11:27:51;;;;;;;13.77;10.20;;;;;;;14.29;81.26;99111.09;4972829;28;20232;-70
2021/10/09 11:30:19;;;;;;;9.00;7.73;;;;;;;14.72;76.98;99109.25;4974218;28;20202;-71
2021/10/09 11:32:47;;;;;;;19.53;16.07;;;;;;;14.61;79.38;99106.88;4971134;28;20236;-69
2021/10/09 11:35:17;;;;;;;8.17;7.33;;;;;;;14.69;77.71;99095.34;4973313;28;20779;-73
2021/10/09 11:37:47;;;;;;;10.23;7.77;;;;;;;14.88;76.73;99099.59;4971893;28;20413;-70
2021/10/09 11:40:29;;;;;;;9.80;7.97;;;;;;;15.27;75.02;99101.63;4937572;28;20217;-71
2021/10/09 11:42:59;;;;;;;10.07;7.97;;;;;;;15.40;74.96;99102.97;4971972;28;20214;-70
2021/10/09 11:45:34;;;;;;;10.73;9.17;;;;;;;15.55;71.09;99111.13;4970803;28;20237;-72
2021/10/09 11:53:49;;;;;;;10.67;8.67;;;;;;;16.12;67.74;99096.84;4970375;28;20225;-70
2021/10/09 11:56:20;;;;;;;9.10;8.13;;;;;;;16.31;69.30;99100.09;4938477;28;20210;-70
2021/10/09 11:58:52;;;;;;;8.30;7.27;;;;;;;16.52;66.79;99094.13;4924329;28;20587;-71
2021/10/09 12:01:30;;;;;;;8.90;7.80;;;;;;;16.55;68.65;99100.97;4974137;28;20216;-70
2021/10/09 12:04:13;;;;;;;8.93;8.13;;;;;;;16.70;63.95;99093.84;4971375;28;20452;-72
2021/10/09 12:06:43;;;;;;;11.13;6.90;;;;;;;16.30;65.05;99101.94;4962162;28;20241;-71
2021/10/09 12:09:27;;;;;;;8.50;7.70;;;;;;;16.64;65.94;99105.28;4974253;28;20193;-71
2021/10/09 12:12:11;;;;;;;9.53;8.13;;;;;;;16.92;63.67;99104.78;4933726;28;21821;-70
2021/10/09 12:14:39;;;;;;;8.23;7.43;;;;;;;17.41;61.63;99100.06;4970819;28;20256;-71
2021/10/09 12:17:07;;;;;;;9.13;7.90;;;;;;;17.62;61.46;99097.53;4971554;28;20433;-71
2021/10/09 12:19:35;;;;;;;9.90;8.60;;;;;;;17.82;57.24;99090.81;4972718;28;20210;-71
2021/10/09 12:22:04;;;;;;;11.13;8.73;;;;;;;18.12;56.11;99072.88;4957543;28;20710;-70
2021/10/09 12:24:35;;;;;;;8.67;7.60;;;;;;;17.63;59.09;99082.25;4971672;28;20240;-72
2021/10/09 12:27:07;;;;;;;10.00;8.00;;;;;;;18.02;58.30;99086.56;4972617;28;20533;-70
2021/10/09 12:29:36;;;;;;;10.60;7.87;;;;;;;18.12;56.36;99075.56;4937175;28;20364;-71
2021/10/09 12:32:15;;;;;;;12.00;8.47;;;;;;;19.11;51.61;99072.50;4967676;28;20478;-71
2021/10/09 12:34:43;;;;;;;11.93;7.87;;;;;;;18.06;53.86;99071.75;4970916;28;20720;-72
2021/10/09 12:37:22;;;;;;;11.40;8.37;;;;;;;17.41;56.71;99078.63;4964072;28;20205;-70
2021/10/09 12:40:08;;;;;;;9.53;8.33;;;;;;;18.25;55.04;99069.53;4973513;28;20359;-68
2021/10/09 12:42:50;;;;;;;8.93;7.60;;;;;;;18.28;54.61;99068.31;4976609;28;20202;-72
2021/10/09 12:45:19;;;;;;;9.57;8.37;;;;;;;18.06;54.22;99070.94;4942235;28;20646;-72
2021/10/09 12:47:54;;;;;;;7.90;7.10;;;;;;;18.68;51.94;99068.75;4974566;28;20275;-70
2021/10/09 12:50:22;;;;;;;8.17;7.47;;;;;;;18.34;54.43;99070.22;4978478;28;20443;-71
2021/10/09 12:52:50;;;;;;;8.77;7.20;;;;;;;18.86;52.09;99068.31;4964701;28;20232;-70
2021/10/09 12:55:21;;;;;;;8.37;7.40;;;;;;;19.13;50.98;99062.38;4980576;28;20232;-71
2021/10/09 12:57:51;;;;;;;9.50;7.67;;;;;;;18.75;53.12;99060.78;4973658;28;20216;-72
2021/10/09 13:00:20;;;;;;;8.63;7.77;;;;;;;19.33;49.95;99057.22;4946615;28;20229;-70
2021/10/09 13:02:51;;;;;;;8.33;7.50;;;;;;;19.58;47.49;99056.75;4969641;28;20693;-71
2021/10/09 13:05:19;;;;;;;12.80;7.30;;;;;;;19.35;48.22;99053.28;4977730;28;20214;-70
2021/10/09 13:07:47;;;;;;;9.47;7.37;;;;;;;18.99;49.82;99048.84;4962513;28;20210;-71
2021/10/09 13:10:16;;;;;;;10.47;7.63;;;;;;;18.75;50.76;99052.72;4974417;28;20206;-71
2021/10/09 13:12:43;;;;;;;10.30;8.10;;;;;;;19.36;49.78;99046.88;4972442;28;20558;-72
2021/10/09 13:15:17;;;;;;;7.83;7.03;;;;;;;19.69;46.64;99050.81;4941987;28;20316;-72
2021/10/09 13:17:46;;;;;;;8.23;7.00;;;;;;;19.60;46.06;99043.94;4970600;28;20206;-71
2021/10/09 13:20:14;;;;;;;8.43;7.30;;;;;;;18.63;48.48;99038.97;4979865;28;20682;-70
2021/10/09 13:22:42;;;;;;;7.80;7.10;;;;;;;18.97;47.90;99037.44;4950915;28;20217;-71
2021/10/09 13:25:28;;;;;;;8.20;6.90;;;;;;;18.31;49.94;99039.25;4973334;28;20206;-72
2021/10/09 13:27:56;;;;;;;7.57;6.80;;;;;;;17.26;52.78;99046.44;4964337;28;20875;-70